Aérodrome :
LOGIN :

S'inscrire | Disclaimer

   EN    FR    IT 

 










Légende :    VFR   VFR Marginal   IFR   IFR Intensif   IFR Très Intensif
Visi : 
Plafond : 
>= 8 km
>= 3000ft
5 à 8 km
1000 à 3000 ft
1500m à 5 km
500 à 1000 ft
800 à 1500m
200 à 500 ft
< 800m
< 200 ft
Symboles :   Orages  Brouillard  Fortes neiges  Fortes précipitations  Vent > 20 kt
SIGMETs :   Divers  Orages  Givrage  Turbulence  Onde Orograph.  Cendres Volcan.







- Altitude de l'aérodrome : 87 ft
- Code IATA : FSC
- Voir les cartes d'approche


LFKF - Figari

DERNIER METAR :
  • 221530Z AUTO 05006KT 030V090 CAVOK 19/06 Q1016 NOSIG

METARs EXPIRÉS :
  • 221500Z AUTO 06009KT 020V110 CAVOK 19/06 Q1016 NOSIG
  • 221430Z AUTO 06011KT 030V100 9999 FEW068 20/07 Q1016 NOSIG
  • 221400Z AUTO 06011KT 020V100 CAVOK 19/06 Q1016 TEMPO 06015G25KT
  • 221330Z AUTO 05011KT 020V100 CAVOK 20/06 Q1016 TEMPO 06015G25KT
  • 221300Z AUTO 06016KT 040V100 CAVOK 20/06 Q1015 TEMPO 06015G25KT

TAF TAF LFKF
Valide du 22 à 15h jusqu'au 23 à 15h UTC


221400Z 2215/2315 06010KT CAVOK
BECMG 2308/2310 21010KT
Pas de NOTAMs connus pour ce terrain.



MET'MAP, la Météo Aéronautique d'un coup d'oeil ! - Copyright ORBIFLY Décembre 2007 - Disclaimer

ORBIFLY MET'MAP TEAM :

Programmation & Développement : Alexandra Zaïnal
Conception & Développement : Baudouin d'Aumeries
Co-Programmation & Développement : Marc-Olivier Méhu
Soutien technique & logistique : Manuel Goepfert

Contact : metmap@orbifly.com




SOURCES & CREDITS :

   NOAA